sensor_id;sensor_type;location;lat;lon;timestamp;pressure;altitude;pressure_sealevel;temperature;humidity
40073;BME280;25774;52.256;9.356;2022-08-18T00:00:31;99930.94;;;19.78;100.00
40073;BME280;25774;52.256;9.356;2022-08-18T00:03:00;99956.25;;;19.83;100.00
40073;BME280;25774;52.256;9.356;2022-08-18T00:05:27;99973.94;;;19.76;100.00
40073;BME280;25774;52.256;9.356;2022-08-18T00:07:52;99984.25;;;19.71;100.00
40073;BME280;25774;52.256;9.356;2022-08-18T00:10:18;99984.03;;;19.64;100.00
40073;BME280;25774;52.256;9.356;2022-08-18T00:12:43;99999.41;;;19.80;100.00
40073;BME280;25774;52.256;9.356;2022-08-18T00:15:12;100001.63;;;19.85;100.00
40073;BME280;25774;52.256;9.356;2022-08-18T00:17:38;99997.16;;;19.93;100.00
40073;BME280;25774;52.256;9.356;2022-08-18T00:20:06;99978.94;;;19.61;100.00
40073;BME280;25774;52.256;9.356;2022-08-18T00:22:33;100004.06;;;19.96;100.00
40073;BME280;25774;52.256;9.356;2022-08-18T00:24:59;99990.78;;;20.12;100.00
40073;BME280;25774;52.256;9.356;2022-08-18T00:27:27;99985.38;;;20.04;100.00
40073;BME280;25774;52.256;9.356;2022-08-18T00:29:54;99987.06;;;19.87;100.00
40073;BME280;25774;52.256;9.356;2022-08-18T00:32:32;99986.31;;;19.77;100.00
40073;BME280;25774;52.256;9.356;2022-08-18T00:35:06;99989.69;;;19.79;100.00
40073;BME280;25774;52.256;9.356;2022-08-18T00:37:32;99982.63;;;19.78;100.00
40073;BME280;25774;52.256;9.356;2022-08-18T00:39:58;99984.84;;;20.01;100.00
40073;BME280;25774;52.256;9.356;2022-08-18T00:42:26;99987.06;;;19.87;100.00
40073;BME280;25774;52.256;9.356;2022-08-18T00:44:52;99979.22;;;19.68;100.00
40073;BME280;25774;52.256;9.356;2022-08-18T00:47:18;99971.47;;;19.47;100.00
40073;BME280;25774;52.256;9.356;2022-08-18T00:49:45;99968.94;;;19.45;100.00
40073;BME280;25774;52.256;9.356;2022-08-18T00:52:13;99974.97;;;19.29;100.00
40073;BME280;25774;52.256;9.356;2022-08-18T00:54:42;99981.34;;;19.46;100.00
40073;BME280;25774;52.256;9.356;2022-08-18T00:57:10;99972.28;;;19.29;100.00
40073;BME280;25774;52.256;9.356;2022-08-18T01:02:10;100010.81;;;19.64;100.00
40073;BME280;25774;52.256;9.356;2022-08-18T01:04:44;100013.03;;;19.69;100.00
40073;BME280;25774;52.256;9.356;2022-08-18T01:07:25;100029.63;;;19.72;100.00
40073;BME280;25774;52.256;9.356;2022-08-18T01:09:55;100035.59;;;19.84;100.00
40073;BME280;25774;52.256;9.356;2022-08-18T01:12:25;100016.78;;;19.76;100.00
40073;BME280;25774;52.256;9.356;2022-08-18T01:14:52;99999.69;;;19.41;100.00
40073;BME280;25774;52.256;9.356;2022-08-18T01:17:19;99994.53;;;19.12;100.00
40073;BME280;25774;52.256;9.356;2022-08-18T01:20:04;100028.44;;;19.12;100.00
40073;BME280;25774;52.256;9.356;2022-08-18T01:22:56;100021.75;;;18.98;100.00
40073;BME280;25774;52.256;9.356;2022-08-18T01:25:25;100016.56;;;19.42;100.00
40073;BME280;25774;52.256;9.356;2022-08-18T01:28:09;99981.94;;;19.40;100.00
40073;BME280;25774;52.256;9.356;2022-08-18T01:30:55;99981.38;;;19.37;100.00
40073;BME280;25774;52.256;9.356;2022-08-18T01:33:37;100002.97;;;19.35;100.00
40073;BME280;25774;52.256;9.356;2022-08-18T01:36:23;100007.53;;;18.97;100.00
40073;BME280;25774;52.256;9.356;2022-08-18T01:38:51;100033.16;;;19.00;100.00
40073;BME280;25774;52.256;9.356;2022-08-18T01:41:19;100037.69;;;19.17;100.00
40073;BME280;25774;52.256;9.356;2022-08-18T01:43:47;100039.53;;;19.17;100.00
40073;BME280;25774;52.256;9.356;2022-08-18T01:46:13;100050.72;;;19.30;100.00
40073;BME280;25774;52.256;9.356;2022-08-18T01:48:45;100044.47;;;19.39;100.00
40073;BME280;25774;52.256;9.356;2022-08-18T01:51:11;100047.19;;;19.57;100.00
40073;BME280;25774;52.256;9.356;2022-08-18T01:53:38;100048.38;;;19.45;100.00
40073;BME280;25774;52.256;9.356;2022-08-18T01:56:04;100049.03;;;19.57;100.00
40073;BME280;25774;52.256;9.356;2022-08-18T01:58:35;100058.09;;;19.73;100.00
40073;BME280;25774;52.256;9.356;2022-08-18T02:01:02;100062.94;;;19.60;100.00
40073;BME280;25774;52.256;9.356;2022-08-18T02:03:32;100054.75;;;19.44;100.00
40073;BME280;25774;52.256;9.356;2022-08-18T02:06:01;100056.81;;;19.50;100.00
40073;BME280;25774;52.256;9.356;2022-08-18T02:08:28;100059.53;;;19.68;100.00
40073;BME280;25774;52.256;9.356;2022-08-18T02:10:53;100056.72;;;19.69;100.00
40073;BME280;25774;52.256;9.356;2022-08-18T02:13:19;100054.94;;;19.78;100.00
40073;BME280;25774;52.256;9.356;2022-08-18T02:15:45;100036.97;;;19.25;100.00
40073;BME280;25774;52.256;9.356;2022-08-18T02:18:14;100031.38;;;19.18;100.00
40073;BME280;25774;52.256;9.356;2022-08-18T02:20:40;100042.31;;;19.25;100.00
40073;BME280;25774;52.256;9.356;2022-08-18T02:23:05;100039.81;;;19.41;100.00
40073;BME280;25774;52.256;9.356;2022-08-18T02:25:31;100029.53;;;19.46;100.00
40073;BME280;25774;52.256;9.356;2022-08-18T02:27:56;100024.97;;;19.29;100.00
40073;BME280;25774;52.256;9.356;2022-08-18T02:30:22;100030.72;;;19.34;100.00
40073;BME280;25774;52.256;9.356;2022-08-18T02:32:48;100016.94;;;19.29;100.00
40073;BME280;25774;52.256;9.356;2022-08-18T02:35:13;100028.50;;;19.47;100.00
40073;BME280;25774;52.256;9.356;2022-08-18T02:37:40;100035.91;;;19.36;100.00
40073;BME280;25774;52.256;9.356;2022-08-18T02:40:07;100045.31;;;19.40;100.00
40073;BME280;25774;52.256;9.356;2022-08-18T02:42:33;100054.03;;;19.42;100.00
40073;BME280;25774;52.256;9.356;2022-08-18T02:44:59;100054.28;;;19.48;100.00
40073;BME280;25774;52.256;9.356;2022-08-18T02:47:25;100043.25;;;19.34;100.00
40073;BME280;25774;52.256;9.356;2022-08-18T02:49:51;100042.16;;;19.26;100.00
40073;BME280;25774;52.256;9.356;2022-08-18T02:52:16;100053.28;;;18.94;100.00
40073;BME280;25774;52.256;9.356;2022-08-18T02:54:42;100063.53;;;18.52;100.00
40073;BME280;25774;52.256;9.356;2022-08-18T02:57:10;100083.47;;;18.67;100.00
40073;BME280;25774;52.256;9.356;2022-08-18T02:59:36;100076.84;;;18.81;100.00
40073;BME280;25774;52.256;9.356;2022-08-18T03:02:04;100076.72;;;19.10;100.00
40073;BME280;25774;52.256;9.356;2022-08-18T03:04:31;100071.75;;;19.25;100.00
40073;BME280;25774;52.256;9.356;2022-08-18T03:06:57;100060.44;;;19.31;100.00
40073;BME280;25774;52.256;9.356;2022-08-18T03:09:23;100039.78;;;19.23;100.00
40073;BME280;25774;52.256;9.356;2022-08-18T03:11:50;100042.91;;;19.19;100.00
40073;BME280;25774;52.256;9.356;2022-08-18T03:14:16;100028.34;;;19.03;100.00
40073;BME280;25774;52.256;9.356;2022-08-18T03:16:44;100052.81;;;19.09;100.00
40073;BME280;25774;52.256;9.356;2022-08-18T03:19:10;100045.34;;;19.12;100.00
40073;BME280;25774;52.256;9.356;2022-08-18T03:21:44;100043.88;;;18.90;100.00
40073;BME280;25774;52.256;9.356;2022-08-18T03:24:10;100065.66;;;18.48;100.00
40073;BME280;25774;52.256;9.356;2022-08-18T03:26:42;100081.69;;;19.05;100.00
40073;BME280;25774;52.256;9.356;2022-08-18T03:29:09;100074.34;;;19.07;100.00
40073;BME280;25774;52.256;9.356;2022-08-18T03:31:36;100049.19;;;19.00;100.00
40073;BME280;25774;52.256;9.356;2022-08-18T03:34:05;100034.88;;;18.91;100.00
40073;BME280;25774;52.256;9.356;2022-08-18T03:36:32;100033.63;;;18.86;100.00
40073;BME280;25774;52.256;9.356;2022-08-18T03:39:00;100045.28;;;18.94;100.00
40073;BME280;25774;52.256;9.356;2022-08-18T03:41:27;100043.84;;;19.00;100.00
40073;BME280;25774;52.256;9.356;2022-08-18T03:43:53;100025.06;;;18.82;100.00
40073;BME280;25774;52.256;9.356;2022-08-18T03:46:20;100037.44;;;18.83;100.00
40073;BME280;25774;52.256;9.356;2022-08-18T03:48:47;100049.56;;;19.15;100.00
40073;BME280;25774;52.256;9.356;2022-08-18T03:51:20;100050.91;;;18.91;100.00
40073;BME280;25774;52.256;9.356;2022-08-18T03:53:47;100042.69;;;18.75;100.00
40073;BME280;25774;52.256;9.356;2022-08-18T03:56:24;100075.97;;;18.90;100.00
40073;BME280;25774;52.256;9.356;2022-08-18T03:58:56;100060.13;;;19.07;100.00
40073;BME280;25774;52.256;9.356;2022-08-18T04:01:26;100068.03;;;19.08;100.00
40073;BME280;25774;52.256;9.356;2022-08-18T04:03:58;100063.19;;;18.84;100.00
40073;BME280;25774;52.256;9.356;2022-08-18T04:06:33;100054.06;;;18.77;100.00
40073;BME280;25774;52.256;9.356;2022-08-18T04:09:01;100048.28;;;18.72;100.00
40073;BME280;25774;52.256;9.356;2022-08-18T04:11:30;100041.31;;;18.51;100.00
40073;BME280;25774;52.256;9.356;2022-08-18T04:13:56;100048.53;;;18.41;100.00
40073;BME280;25774;52.256;9.356;2022-08-18T04:16:26;100066.50;;;18.39;100.00
40073;BME280;25774;52.256;9.356;2022-08-18T04:18:51;100105.81;;;18.86;100.00
40073;BME280;25774;52.256;9.356;2022-08-18T04:21:17;100110.19;;;18.87;100.00
40073;BME280;25774;52.256;9.356;2022-08-18T04:23:43;100107.28;;;19.08;100.00
40073;BME280;25774;52.256;9.356;2022-08-18T04:26:11;100137.47;;;19.37;100.00
40073;BME280;25774;52.256;9.356;2022-08-18T04:28:37;100123.31;;;19.45;100.00
40073;BME280;25774;52.256;9.356;2022-08-18T04:31:09;100143.66;;;19.38;100.00
40073;BME280;25774;52.256;9.356;2022-08-18T04:33:34;100160.84;;;19.63;100.00
40073;BME280;25774;52.256;9.356;2022-08-18T04:36:10;100173.09;;;19.65;100.00
40073;BME280;25774;52.256;9.356;2022-08-18T04:38:37;100167.41;;;19.78;100.00
40073;BME280;25774;52.256;9.356;2022-08-18T04:41:03;100172.81;;;19.59;100.00
40073;BME280;25774;52.256;9.356;2022-08-18T04:43:29;100165.59;;;19.96;100.00
40073;BME280;25774;52.256;9.356;2022-08-18T04:45:54;100176.59;;;20.39;100.00
40073;BME280;25774;52.256;9.356;2022-08-18T04:48:29;100145.94;;;20.41;100.00
40073;BME280;25774;52.256;9.356;2022-08-18T04:51:11;100150.31;;;20.42;100.00
40073;BME280;25774;52.256;9.356;2022-08-18T04:53:37;100148.09;;;20.20;100.00
40073;BME280;25774;52.256;9.356;2022-08-18T04:56:26;100175.28;;;20.43;100.00
40073;BME280;25774;52.256;9.356;2022-08-18T04:58:53;100151.47;;;20.58;100.00
40073;BME280;25774;52.256;9.356;2022-08-18T05:01:22;100167.16;;;20.17;100.00
40073;BME280;25774;52.256;9.356;2022-08-18T05:03:49;100184.44;;;20.76;100.00
40073;BME280;25774;52.256;9.356;2022-08-18T05:06:15;100180.53;;;20.88;100.00
40073;BME280;25774;52.256;9.356;2022-08-18T05:08:41;100163.31;;;20.73;100.00
40073;BME280;25774;52.256;9.356;2022-08-18T05:11:06;100161.59;;;20.90;100.00
40073;BME280;25774;52.256;9.356;2022-08-18T05:13:33;100160.69;;;20.81;100.00
40073;BME280;25774;52.256;9.356;2022-08-18T05:15:59;100166.38;;;20.25;100.00
40073;BME280;25774;52.256;9.356;2022-08-18T05:18:32;100203.06;;;20.24;100.00
40073;BME280;25774;52.256;9.356;2022-08-18T05:20:58;100197.34;;;20.37;100.00
40073;BME280;25774;52.256;9.356;2022-08-18T05:23:26;100214.16;;;21.01;100.00
40073;BME280;25774;52.256;9.356;2022-08-18T05:25:58;100187.41;;;21.35;100.00
40073;BME280;25774;52.256;9.356;2022-08-18T05:28:24;100161.94;;;21.47;100.00
40073;BME280;25774;52.256;9.356;2022-08-18T05:30:50;100162.16;;;21.54;100.00
40073;BME280;25774;52.256;9.356;2022-08-18T05:33:15;100145.97;;;21.88;100.00
40073;BME280;25774;52.256;9.356;2022-08-18T05:35:50;100149.47;;;21.89;100.00
40073;BME280;25774;52.256;9.356;2022-08-18T05:38:39;100144.34;;;21.53;100.00
40073;BME280;25774;52.256;9.356;2022-08-18T05:41:14;100155.81;;;22.22;100.00
40073;BME280;25774;52.256;9.356;2022-08-18T05:43:44;100098.97;;;22.00;100.00
40073;BME280;25774;52.256;9.356;2022-08-18T05:46:13;100119.44;;;22.01;100.00
40073;BME280;25774;52.256;9.356;2022-08-18T05:48:39;100107.78;;;21.60;100.00
40073;BME280;25774;52.256;9.356;2022-08-18T05:51:23;100108.31;;;21.64;100.00
40073;BME280;25774;52.256;9.356;2022-08-18T05:53:50;100124.94;;;21.67;100.00
40073;BME280;25774;52.256;9.356;2022-08-18T05:56:36;100123.00;;;22.10;100.00
40073;BME280;25774;52.256;9.356;2022-08-18T05:59:16;100126.50;;;21.86;100.00
40073;BME280;25774;52.256;9.356;2022-08-18T06:01:44;100107.06;;;21.50;100.00
40073;BME280;25774;52.256;9.356;2022-08-18T06:06:55;100125.69;;;22.02;100.00
40073;BME280;25774;52.256;9.356;2022-08-18T06:09:37;100123.53;;;22.30;100.00
40073;BME280;25774;52.256;9.356;2022-08-18T06:12:12;100109.50;;;21.77;100.00
40073;BME280;25774;52.256;9.356;2022-08-18T06:14:41;100114.53;;;21.72;100.00
40073;BME280;25774;52.256;9.356;2022-08-18T06:22:45;100117.91;;;21.74;100.00
40073;BME280;25774;52.256;9.356;2022-08-18T06:25:21;100113.97;;;21.52;100.00
40073;BME280;25774;52.256;9.356;2022-08-18T06:30:43;100100.59;;;21.69;100.00
40073;BME280;25774;52.256;9.356;2022-08-18T06:36:38;100111.75;;;22.06;100.00
40073;BME280;25774;52.256;9.356;2022-08-18T06:41:57;100126.06;;;22.23;100.00
40073;BME280;25774;52.256;9.356;2022-08-18T06:44:44;100093.94;;;21.97;100.00
40073;BME280;25774;52.256;9.356;2022-08-18T06:52:58;100102.91;;;22.47;100.00
40073;BME280;25774;52.256;9.356;2022-08-18T06:55:49;100079.69;;;22.38;100.00
40073;BME280;25774;52.256;9.356;2022-08-18T07:03:21;100121.53;;;22.73;100.00
40073;BME280;25774;52.256;9.356;2022-08-18T07:06:27;100087.22;;;22.67;100.00
40073;BME280;25774;52.256;9.356;2022-08-18T07:08:55;100091.09;;;22.64;100.00
40073;BME280;25774;52.256;9.356;2022-08-18T07:11:39;100101.19;;;22.62;100.00
40073;BME280;25774;52.256;9.356;2022-08-18T07:14:22;100113.88;;;23.09;100.00
40073;BME280;25774;52.256;9.356;2022-08-18T07:16:48;100078.81;;;21.80;100.00
40073;BME280;25774;52.256;9.356;2022-08-18T07:19:17;100108.09;;;22.48;100.00
40073;BME280;25774;52.256;9.356;2022-08-18T07:22:00;100114.09;;;22.91;100.00
40073;BME280;25774;52.256;9.356;2022-08-18T07:24:29;100088.56;;;22.71;100.00
40073;BME280;25774;52.256;9.356;2022-08-18T07:27:00;100080.53;;;22.63;100.00
40073;BME280;25774;52.256;9.356;2022-08-18T07:29:27;100087.53;;;22.80;100.00
40073;BME280;25774;52.256;9.356;2022-08-18T07:31:54;100079.69;;;22.62;100.00
40073;BME280;25774;52.256;9.356;2022-08-18T07:34:35;100091.06;;;22.89;100.00
40073;BME280;25774;52.256;9.356;2022-08-18T07:37:14;100093.53;;;23.07;100.00
40073;BME280;25774;52.256;9.356;2022-08-18T07:39:46;100078.09;;;23.01;100.00
40073;BME280;25774;52.256;9.356;2022-08-18T07:42:23;100041.84;;;21.82;100.00
40073;BME280;25774;52.256;9.356;2022-08-18T07:45:03;100104.50;;;22.89;100.00
40073;BME280;25774;52.256;9.356;2022-08-18T07:47:37;100072.31;;;23.51;100.00
40073;BME280;25774;52.256;9.356;2022-08-18T07:50:07;100063.94;;;23.46;100.00
40073;BME280;25774;52.256;9.356;2022-08-18T07:53:07;100074.59;;;24.17;100.00
40073;BME280;25774;52.256;9.356;2022-08-18T07:55:38;100049.41;;;23.24;100.00
40073;BME280;25774;52.256;9.356;2022-08-18T07:58:30;100100.78;;;24.69;100.00
40073;BME280;25774;52.256;9.356;2022-08-18T08:06:23;100016.06;;;24.02;100.00
40073;BME280;25774;52.256;9.356;2022-08-18T08:11:55;100052.03;;;23.63;100.00
40073;BME280;25774;52.256;9.356;2022-08-18T08:14:42;100042.63;;;24.51;100.00
40073;BME280;25774;52.256;9.356;2022-08-18T08:33:34;100020.31;;;25.74;100.00
40073;BME280;25774;52.256;9.356;2022-08-18T08:36:05;99984.72;;;25.71;100.00
40073;BME280;25774;52.256;9.356;2022-08-18T08:38:43;99949.16;;;25.10;100.00
40073;BME280;25774;52.256;9.356;2022-08-18T08:43:48;100032.16;;;25.73;100.00
40073;BME280;25774;52.256;9.356;2022-08-18T08:46:26;99979.19;;;24.55;100.00
40073;BME280;25774;52.256;9.356;2022-08-18T08:52:15;100063.28;;;23.98;100.00
40073;BME280;25774;52.256;9.356;2022-08-18T08:57:18;100016.78;;;24.19;100.00
40073;BME280;25774;52.256;9.356;2022-08-18T08:59:47;100041.41;;;24.16;100.00
40073;BME280;25774;52.256;9.356;2022-08-18T09:05:14;100020.59;;;24.77;100.00
40073;BME280;25774;52.256;9.356;2022-08-18T09:13:18;100041.63;;;25.63;100.00
40073;BME280;25774;52.256;9.356;2022-08-18T09:21:16;99983.09;;;24.15;100.00
40073;BME280;25774;52.256;9.356;2022-08-18T09:23:46;100039.84;;;24.45;100.00
40073;BME280;25774;52.256;9.356;2022-08-18T09:28:58;99997.34;;;24.24;100.00
40073;BME280;25774;52.256;9.356;2022-08-18T09:31:26;100031.91;;;24.43;100.00
40073;BME280;25774;52.256;9.356;2022-08-18T09:34:05;100043.09;;;24.85;100.00
40073;BME280;25774;52.256;9.356;2022-08-18T09:36:53;100013.03;;;24.73;100.00
40073;BME280;25774;52.256;9.356;2022-08-18T09:39:34;100011.63;;;24.47;100.00
40073;BME280;25774;52.256;9.356;2022-08-18T09:45:04;100040.63;;;24.83;100.00
40073;BME280;25774;52.256;9.356;2022-08-18T09:55:01;100035.22;;;25.13;100.00
40073;BME280;25774;52.256;9.356;2022-08-18T09:57:32;100053.72;;;25.67;100.00
40073;BME280;25774;52.256;9.356;2022-08-18T10:07:53;100008.78;;;24.78;100.00
40073;BME280;25774;52.256;9.356;2022-08-18T10:16:11;100034.97;;;26.02;100.00
40073;BME280;25774;52.256;9.356;2022-08-18T10:21:16;100033.75;;;26.54;100.00
40073;BME280;25774;52.256;9.356;2022-08-18T10:29:02;100005.59;;;25.19;100.00
40073;BME280;25774;52.256;9.356;2022-08-18T10:31:32;100066.25;;;26.11;100.00
40073;BME280;25774;52.256;9.356;2022-08-18T10:37:12;100050.41;;;25.86;100.00
40073;BME280;25774;52.256;9.356;2022-08-18T10:42:27;100040.44;;;25.50;100.00
40073;BME280;25774;52.256;9.356;2022-08-18T10:45:11;100046.72;;;24.92;100.00
40073;BME280;25774;52.256;9.356;2022-08-18T10:47:38;100041.16;;;25.08;100.00
40073;BME280;25774;52.256;9.356;2022-08-18T10:50:20;100032.28;;;25.44;100.00
40073;BME280;25774;52.256;9.356;2022-08-18T10:53:12;100057.44;;;25.29;100.00
40073;BME280;25774;52.256;9.356;2022-08-18T10:56:30;100030.97;;;25.40;100.00
40073;BME280;25774;52.256;9.356;2022-08-18T11:01:50;100038.75;;;26.35;100.00
40073;BME280;25774;52.256;9.356;2022-08-18T11:04:36;100013.34;;;26.02;100.00
40073;BME280;25774;52.256;9.356;2022-08-18T11:07:10;100035.97;;;25.79;100.00
40073;BME280;25774;52.256;9.356;2022-08-18T11:09:37;99988.22;;;25.43;100.00
40073;BME280;25774;52.256;9.356;2022-08-18T11:12:04;100027.25;;;25.41;100.00
40073;BME280;25774;52.256;9.356;2022-08-18T11:17:13;100068.53;;;26.35;100.00
40073;BME280;25774;52.256;9.356;2022-08-18T11:19:42;99992.97;;;26.97;95.63
40073;BME280;25774;52.256;9.356;2022-08-18T11:22:27;99951.94;;;27.00;91.15
40073;BME280;25774;52.256;9.356;2022-08-18T11:24:54;99950.03;;;26.87;90.13
40073;BME280;25774;52.256;9.356;2022-08-18T11:27:22;99918.69;;;26.30;92.37
40073;BME280;25774;52.256;9.356;2022-08-18T11:29:49;99993.06;;;26.75;93.98
40073;BME280;25774;52.256;9.356;2022-08-18T11:32:29;99943.59;;;26.95;90.32
40073;BME280;25774;52.256;9.356;2022-08-18T11:37:34;99913.56;;;26.89;87.24
40073;BME280;25774;52.256;9.356;2022-08-18T11:40:04;99836.19;;;26.54;84.83
40073;BME280;25774;52.256;9.356;2022-08-18T11:42:53;99903.13;;;26.86;84.77
40073;BME280;25774;52.256;9.356;2022-08-18T11:45:25;99906.88;;;26.85;84.65
40073;BME280;25774;52.256;9.356;2022-08-18T11:50:30;100003.78;;;27.38;85.76
40073;BME280;25774;52.256;9.356;2022-08-18T11:56:10;99988.94;;;27.27;86.22
40073;BME280;25774;52.256;9.356;2022-08-18T11:58:44;99977.75;;;27.02;88.18
40073;BME280;25774;52.256;9.356;2022-08-18T12:06:26;99921.19;;;27.27;84.86
40073;BME280;25774;52.256;9.356;2022-08-18T12:09:00;99908.22;;;26.55;88.30
40073;BME280;25774;52.256;9.356;2022-08-18T12:11:30;99967.72;;;26.20;93.85
40073;BME280;25774;52.256;9.356;2022-08-18T12:14:00;100048.88;;;26.76;94.93
40073;BME280;25774;52.256;9.356;2022-08-18T12:16:38;99986.19;;;26.44;95.13
40073;BME280;25774;52.256;9.356;2022-08-18T12:19:07;99960.47;;;26.27;94.70
40073;BME280;25774;52.256;9.356;2022-08-18T12:21:40;99971.03;;;25.72;99.23
40073;BME280;25774;52.256;9.356;2022-08-18T12:24:21;100006.59;;;26.75;95.03
40073;BME280;25774;52.256;9.356;2022-08-18T12:26:48;99956.09;;;25.98;96.70
40073;BME280;25774;52.256;9.356;2022-08-18T12:29:14;99932.66;;;26.05;94.40
40073;BME280;25774;52.256;9.356;2022-08-18T12:31:42;99840.81;;;25.90;90.54
40073;BME280;25774;52.256;9.356;2022-08-18T12:34:08;99912.19;;;26.24;90.18
40073;BME280;25774;52.256;9.356;2022-08-18T12:36:34;99907.72;;;26.86;86.66
40073;BME280;25774;52.256;9.356;2022-08-18T12:39:00;99871.13;;;27.10;83.54
40073;BME280;25774;52.256;9.356;2022-08-18T12:41:25;99802.38;;;27.11;80.31
40073;BME280;25774;52.256;9.356;2022-08-18T12:43:51;99896.44;;;27.70;79.73
40073;BME280;25774;52.256;9.356;2022-08-18T12:46:20;99902.94;;;27.89;77.90
40073;BME280;25774;52.256;9.356;2022-08-18T12:48:46;99739.81;;;27.66;73.73
40073;BME280;25774;52.256;9.356;2022-08-18T12:51:11;99842.41;;;28.02;74.99
40073;BME280;25774;52.256;9.356;2022-08-18T12:53:38;99855.97;;;27.49;77.62
40073;BME280;25774;52.256;9.356;2022-08-18T12:56:19;99882.06;;;27.70;77.44
40073;BME280;25774;52.256;9.356;2022-08-18T12:58:46;99722.16;;;27.03;76.52
40073;BME280;25774;52.256;9.356;2022-08-18T13:01:12;99866.50;;;28.30;74.10
40073;BME280;25774;52.256;9.356;2022-08-18T13:03:37;99744.84;;;27.55;74.04
40073;BME280;25774;52.256;9.356;2022-08-18T13:06:03;99730.25;;;26.77;77.72
40073;BME280;25774;52.256;9.356;2022-08-18T13:08:29;99877.47;;;27.70;76.99
40073;BME280;25774;52.256;9.356;2022-08-18T13:10:54;99832.72;;;26.86;79.94
40073;BME280;25774;52.256;9.356;2022-08-18T13:13:21;99889.78;;;26.78;82.34
40073;BME280;25774;52.256;9.356;2022-08-18T13:15:47;99886.34;;;28.44;73.93
40073;BME280;25774;52.256;9.356;2022-08-18T13:18:12;99888.75;;;27.80;76.41
40073;BME280;25774;52.256;9.356;2022-08-18T13:20:40;99925.84;;;27.73;77.67
40073;BME280;25774;52.256;9.356;2022-08-18T13:23:05;99883.31;;;27.47;77.45
40073;BME280;25774;52.256;9.356;2022-08-18T13:25:31;99754.63;;;27.63;74.29
40073;BME280;25774;52.256;9.356;2022-08-18T13:27:57;99907.88;;;28.19;75.30
40073;BME280;25774;52.256;9.356;2022-08-18T13:30:23;99754.81;;;27.68;73.85
40073;BME280;25774;52.256;9.356;2022-08-18T13:32:49;99837.22;;;27.41;77.63
40073;BME280;25774;52.256;9.356;2022-08-18T13:35:15;99842.72;;;28.32;74.72
40073;BME280;25774;52.256;9.356;2022-08-18T13:37:41;99938.25;;;28.67;75.74
40073;BME280;25774;52.256;9.356;2022-08-18T13:40:08;99928.97;;;28.17;77.52
40073;BME280;25774;52.256;9.356;2022-08-18T13:42:43;99924.16;;;27.59;79.82
40073;BME280;25774;52.256;9.356;2022-08-18T13:45:11;99818.94;;;28.34;73.36
40073;BME280;25774;52.256;9.356;2022-08-18T13:47:37;99807.84;;;27.51;76.83
40073;BME280;25774;52.256;9.356;2022-08-18T13:50:04;99978.19;;;27.67;81.14
40073;BME280;25774;52.256;9.356;2022-08-18T13:52:30;99890.81;;;27.52;79.74
40073;BME280;25774;52.256;9.356;2022-08-18T13:54:56;99934.41;;;27.64;80.45
40073;BME280;25774;52.256;9.356;2022-08-18T13:57:21;99889.31;;;27.76;78.50
40073;BME280;25774;52.256;9.356;2022-08-18T13:59:47;99830.97;;;27.33;78.48
40073;BME280;25774;52.256;9.356;2022-08-18T14:02:12;99914.53;;;27.36;80.23
40073;BME280;25774;52.256;9.356;2022-08-18T14:04:39;99896.63;;;26.67;83.66
40073;BME280;25774;52.256;9.356;2022-08-18T14:07:06;99865.13;;;27.28;79.37
40073;BME280;25774;52.256;9.356;2022-08-18T14:09:34;99819.94;;;27.28;78.35
40073;BME280;25774;52.256;9.356;2022-08-18T14:12:03;99854.84;;;26.97;80.44
40073;BME280;25774;52.256;9.356;2022-08-18T14:14:29;99865.38;;;27.73;76.80
40073;BME280;25774;52.256;9.356;2022-08-18T14:16:55;99811.97;;;27.47;76.53
40073;BME280;25774;52.256;9.356;2022-08-18T14:19:20;99855.56;;;27.92;75.74
40073;BME280;25774;52.256;9.356;2022-08-18T14:22:05;99794.91;;;27.79;74.43
40073;BME280;25774;52.256;9.356;2022-08-18T14:24:49;99829.50;;;27.64;75.58
40073;BME280;25774;52.256;9.356;2022-08-18T14:27:35;99825.53;;;27.67;75.01
40073;BME280;25774;52.256;9.356;2022-08-18T14:30:05;99756.59;;;28.08;71.65
40073;BME280;25774;52.256;9.356;2022-08-18T14:32:31;99797.56;;;27.66;73.52
40073;BME280;25774;52.256;9.356;2022-08-18T14:34:59;99824.28;;;27.96;73.08
40073;BME280;25774;52.256;9.356;2022-08-18T14:37:26;99787.78;;;27.65;73.74
40073;BME280;25774;52.256;9.356;2022-08-18T14:39:53;99722.13;;;27.50;71.95
40073;BME280;25774;52.256;9.356;2022-08-18T14:42:19;99848.69;;;27.89;72.51
40073;BME280;25774;52.256;9.356;2022-08-18T14:44:46;99810.28;;;27.72;72.00
40073;BME280;25774;52.256;9.356;2022-08-18T14:47:12;99786.13;;;27.71;72.10
40073;BME280;25774;52.256;9.356;2022-08-18T14:49:38;99791.50;;;27.91;71.00
40073;BME280;25774;52.256;9.356;2022-08-18T14:52:05;99734.56;;;28.36;68.49
40073;BME280;25774;52.256;9.356;2022-08-18T14:54:32;99725.66;;;27.64;70.59
40073;BME280;25774;52.256;9.356;2022-08-18T14:57:00;99786.75;;;28.44;68.38
40073;BME280;25774;52.256;9.356;2022-08-18T14:59:30;99620.06;;;27.75;66.89
40073;BME280;25774;52.256;9.356;2022-08-18T15:01:57;99568.06;;;27.92;64.30
40073;BME280;25774;52.256;9.356;2022-08-18T15:04:23;99487.06;;;28.52;60.87
40073;BME280;25774;52.256;9.356;2022-08-18T15:06:49;99737.13;;;29.01;62.67
40073;BME280;25774;52.256;9.356;2022-08-18T15:09:14;99760.47;;;29.33;62.82
40073;BME280;25774;52.256;9.356;2022-08-18T15:11:40;99751.56;;;29.19;62.44
40073;BME280;25774;52.256;9.356;2022-08-18T15:14:05;99732.69;;;28.74;63.57
40073;BME280;25774;52.256;9.356;2022-08-18T15:16:31;99678.97;;;28.51;63.60
40073;BME280;25774;52.256;9.356;2022-08-18T15:18:59;99823.09;;;29.20;63.41
40073;BME280;25774;52.256;9.356;2022-08-18T15:21:26;99553.59;;;29.05;60.60